Time;durP1;ratioP1;P1;durP2;ratioP2;P2;SDS_P1;SDS_P2;PMS_P1;PMS_P2;Temp;Humidity;BMP_temperature;BMP_pressure;BME280_temperature;BME280_humidity;BME280_pressure;Samples;Min_cycle;Max_cycle;Signal;HPM_P1;HPM_P2
2021/09/22 00:01:51;;;;;;;;;;;14.70;96.20;;;;;;5091497;28;20346;-70
2021/09/22 00:04:17;;;;;;;;;;;14.90;96.00;;;;;;5092364;28;20023;-69
2021/09/22 00:06:44;;;;;;;;;;;14.80;95.70;;;;;;5090572;28;19917;-69
2021/09/22 00:09:10;;;;;;;;;;;15.00;95.40;;;;;;5092162;28;19915;-70
2021/09/22 00:11:37;;;;;;;;;;;15.10;95.30;;;;;;5091487;28;19912;-70
2021/09/22 00:14:04;;;;;;;;;;;15.00;95.30;;;;;;5092022;28;20362;-69
2021/09/22 00:16:31;;;;;;;;;;;15.10;95.50;;;;;;5090072;28;19999;-68
2021/09/22 00:18:57;;;;;;;;;;;15.30;95.40;;;;;;5071896;28;19974;-67
2021/09/22 00:21:24;;;;;;;;;;;15.30;95.20;;;;;;5071461;28;20390;-68
2021/09/22 00:23:50;;;;;;;;;;;15.40;94.30;;;;;;5071289;28;19912;-70
2021/09/22 00:26:17;;;;;;;;;;;15.40;95.00;;;;;;5074044;28;19923;-68
2021/09/22 00:28:44;;;;;;;;;;;15.30;95.00;;;;;;5107671;28;19915;-69
2021/09/22 00:31:10;;;;;;;;;;;15.30;94.70;;;;;;5073661;28;20317;-70
2021/09/22 00:33:37;;;;;;;;;;;15.30;95.00;;;;;;5074600;28;19944;-70
2021/09/22 00:36:04;;;;;;;;;;;15.50;95.40;;;;;;5075053;28;20326;-70
2021/09/22 00:38:30;;;;;;;;;;;15.70;94.90;;;;;;5075015;28;19916;-70
2021/09/22 00:40:57;;;;;;;;;;;15.90;94.60;;;;;;5074714;28;20309;-68
2021/09/22 00:43:24;;;;;;;;;;;16.00;94.40;;;;;;5074544;28;19908;-68
2021/09/22 00:45:50;;;;;;;;;;;16.00;94.60;;;;;;5074564;28;19920;-69
2021/09/22 00:48:17;;;;;;;;;;;16.10;94.90;;;;;;5075230;28;19909;-68
2021/09/22 00:50:44;;;;;;;;;;;16.20;94.70;;;;;;5075301;28;19926;-68
2021/09/22 00:53:11;;;;;;;;;;;16.40;94.30;;;;;;5073329;28;19918;-69
2021/09/22 00:55:40;;;;;;;;;;;16.40;94.90;;;;;;5074397;28;19913;-68
2021/09/22 00:58:08;;;;;;;;;;;16.50;94.50;;;;;;5074193;28;19955;-69
2021/09/22 01:00:37;;;;;;;;;;;16.60;94.00;;;;;;5074534;28;19974;-68
2021/09/22 01:03:05;;;;;;;;;;;16.90;94.40;;;;;;5074109;28;19915;-67
2021/09/22 01:05:32;;;;;;;;;;;17.20;92.90;;;;;;5074136;28;20007;-70
2021/09/22 01:07:59;;;;;;;;;;;16.90;93.30;;;;;;5074736;28;19910;-69
2021/09/22 01:10:25;;;;;;;;;;;17.10;92.80;;;;;;5075131;28;20298;-68
2021/09/22 01:12:52;;;;;;;;;;;17.10;92.60;;;;;;5074880;28;19908;-69
2021/09/22 01:15:26;;;;;;;;;;;17.50;91.40;;;;;;5074656;28;20424;-67
2021/09/22 01:17:53;;;;;;;;;;;17.60;90.60;;;;;;5074084;28;19916;-69
2021/09/22 01:20:20;;;;;;;;;;;17.80;90.10;;;;;;5074469;28;19986;-69
2021/09/22 01:22:47;;;;;;;;;;;18.00;89.10;;;;;;5074288;28;19962;-70
2021/09/22 01:25:14;;;;;;;;;;;17.80;90.10;;;;;;5074020;28;19912;-69
2021/09/22 01:27:51;;;;;;;;;;;17.70;90.30;;;;;;5073419;28;19982;-70
2021/09/22 01:30:18;;;;;;;;;;;17.50;90.60;;;;;;5074141;28;20023;-70
2021/09/22 01:32:48;;;;;;;;;;;17.30;91.20;;;;;;5073732;28;20015;-70
2021/09/22 01:35:15;;;;;;;;;;;17.20;91.70;;;;;;5074560;28;20274;-70
2021/09/22 01:37:42;;;;;;;;;;;17.10;91.90;;;;;;5071887;28;19909;-68
2021/09/22 01:40:09;;;;;;;;;;;17.10;91.60;;;;;;5092353;28;19908;-69
2021/09/22 01:42:36;;;;;;;;;;;17.00;91.60;;;;;;5094189;28;20274;-71
2021/09/22 01:45:06;;;;;;;;;;;17.00;92.30;;;;;;5094668;28;19916;-70
2021/09/22 01:47:33;;;;;;;;;;;17.10;92.30;;;;;;5094107;28;20355;-70
2021/09/22 01:50:04;;;;;;;;;;;17.10;91.80;;;;;;5093332;28;20009;-69
2021/09/22 01:52:34;;;;;;;;;;;17.30;91.60;;;;;;5093652;28;19908;-68
2021/09/22 01:55:00;;;;;;;;;;;17.20;90.70;;;;;;5093126;28;19911;-68
2021/09/22 01:57:27;;;;;;;;;;;17.10;91.60;;;;;;5094774;28;20355;-69
2021/09/22 01:59:54;;;;;;;;;;;17.20;91.50;;;;;;5094371;28;19934;-70
2021/09/22 02:02:20;;;;;;;;;;;17.20;92.20;;;;;;5094629;28;19976;-70
2021/09/22 02:04:47;;;;;;;;;;;17.20;91.60;;;;;;5093534;28;19908;-70
2021/09/22 02:07:14;;;;;;;;;;;17.10;91.30;;;;;;5094056;28;19912;-68
2021/09/22 02:09:41;;;;;;;;;;;17.10;91.20;;;;;;5092816;28;20389;-69
2021/09/22 02:12:08;;;;;;;;;;;17.10;90.50;;;;;;5093984;28;19951;-68
2021/09/22 02:14:35;;;;;;;;;;;17.10;91.30;;;;;;5094190;28;19998;-68
2021/09/22 02:17:01;;;;;;;;;;;17.10;91.80;;;;;;5094178;28;19913;-69
2021/09/22 02:19:29;;;;;;;;;;;17.10;92.10;;;;;;5093920;28;19915;-68
2021/09/22 02:21:56;;;;;;;;;;;17.10;92.40;;;;;;5094311;28;19908;-70
2021/09/22 02:24:23;;;;;;;;;;;17.00;92.60;;;;;;5092680;28;19951;-69
2021/09/22 02:26:52;;;;;;;;;;;16.90;93.00;;;;;;5093707;28;19966;-68
2021/09/22 02:29:19;;;;;;;;;;;17.00;92.80;;;;;;5094023;28;20042;-69
2021/09/22 02:31:47;;;;;;;;;;;17.00;93.20;;;;;;5093873;28;19961;-69
2021/09/22 02:34:14;;;;;;;;;;;16.90;92.80;;;;;;5094315;28;19915;-69
2021/09/22 02:36:41;;;;;;;;;;;16.90;92.60;;;;;;5094878;28;19908;-68
2021/09/22 02:39:08;;;;;;;;;;;17.00;92.20;;;;;;5096020;28;19912;-68
2021/09/22 02:41:35;;;;;;;;;;;17.20;91.30;;;;;;5094022;28;19943;-70
2021/09/22 02:44:01;;;;;;;;;;;17.00;91.40;;;;;;5093316;28;19954;-70
2021/09/22 02:46:28;;;;;;;;;;;17.00;91.70;;;;;;5093171;28;20460;-69
2021/09/22 02:48:55;;;;;;;;;;;16.90;91.80;;;;;;5092977;28;19947;-69
2021/09/22 02:51:22;;;;;;;;;;;17.00;92.70;;;;;;5094253;28;19920;-69
2021/09/22 02:53:48;;;;;;;;;;;17.10;91.60;;;;;;5096504;28;19912;-69
2021/09/22 02:56:15;;;;;;;;;;;17.10;92.90;;;;;;5093092;28;20294;-70
2021/09/22 02:58:42;;;;;;;;;;;17.10;92.60;;;;;;5092780;28;20003;-70
2021/09/22 03:01:08;;;;;;;;;;;17.00;93.50;;;;;;5093007;28;19934;-70
2021/09/22 03:03:35;;;;;;;;;;;17.10;93.60;;;;;;5092604;28;19912;-70
2021/09/22 03:06:02;;;;;;;;;;;17.10;93.00;;;;;;5092655;28;20283;-71
2021/09/22 03:08:28;;;;;;;;;;;17.00;94.20;;;;;;5092687;28;19915;-69
2021/09/22 03:10:55;;;;;;;;;;;17.00;94.70;;;;;;5092610;28;19908;-69
2021/09/22 03:13:22;;;;;;;;;;;17.20;94.80;;;;;;5092570;28;19962;-68
2021/09/22 03:15:48;;;;;;;;;;;17.30;94.00;;;;;;5092512;28;19908;-69
2021/09/22 03:18:15;;;;;;;;;;;17.20;93.40;;;;;;5092563;28;20386;-68
2021/09/22 03:20:42;;;;;;;;;;;17.10;94.00;;;;;;5092916;28;20046;-69
2021/09/22 03:23:08;;;;;;;;;;;17.00;93.60;;;;;;5092410;28;19908;-68
2021/09/22 03:25:35;;;;;;;;;;;17.10;94.50;;;;;;5092396;28;19971;-68
2021/09/22 03:28:01;;;;;;;;;;;17.20;94.70;;;;;;5092475;28;19908;-69
2021/09/22 03:30:28;;;;;;;;;;;17.30;93.30;;;;;;5092344;28;19908;-70
2021/09/22 03:32:55;;;;;;;;;;;17.20;93.70;;;;;;5092530;28;19908;-67
2021/09/22 03:35:21;;;;;;;;;;;17.20;94.10;;;;;;5092596;28;20299;-68
2021/09/22 03:37:48;;;;;;;;;;;17.50;93.70;;;;;;5092101;28;19992;-68
2021/09/22 03:40:15;;;;;;;;;;;17.40;92.90;;;;;;5092509;28;19908;-68
2021/09/22 03:42:42;;;;;;;;;;;17.40;93.10;;;;;;5092331;28;19951;-69
2021/09/22 03:45:09;;;;;;;;;;;17.40;93.50;;;;;;5092325;28;19916;-69
2021/09/22 03:47:36;;;;;;;;;;;17.40;93.50;;;;;;5092109;28;20014;-70
2021/09/22 03:50:03;;;;;;;;;;;17.40;93.70;;;;;;5092148;28;19920;-69
2021/09/22 03:52:30;;;;;;;;;;;17.40;92.60;;;;;;5092266;28;20340;-70
2021/09/22 03:54:56;;;;;;;;;;;17.30;93.30;;;;;;5092385;28;19908;-70
2021/09/22 03:57:23;;;;;;;;;;;17.30;93.80;;;;;;5091434;28;19991;-69
2021/09/22 03:59:50;;;;;;;;;;;17.10;93.90;;;;;;5092413;28;19966;-70
2021/09/22 04:02:16;;;;;;;;;;;17.20;94.20;;;;;;5096178;28;19908;-70
2021/09/22 04:04:43;;;;;;;;;;;17.30;94.60;;;;;;5096062;28;20252;-70
2021/09/22 04:07:10;;;;;;;;;;;17.30;94.80;;;;;;5096177;28;19916;-69
2021/09/22 04:09:37;;;;;;;;;;;17.30;94.70;;;;;;5095972;28;19908;-69
2021/09/22 04:12:03;;;;;;;;;;;17.30;94.90;;;;;;5095893;28;19908;-69
2021/09/22 04:14:30;;;;;;;;;;;17.30;93.90;;;;;;5096327;28;19908;-69
2021/09/22 04:16:57;;;;;;;;;;;17.20;94.60;;;;;;5096069;28;19969;-70
2021/09/22 04:19:23;;;;;;;;;;;17.10;94.80;;;;;;5096489;28;19919;-69
2021/09/22 04:21:50;;;;;;;;;;;17.10;95.30;;;;;;5095698;28;19912;-69
2021/09/22 04:24:17;;;;;;;;;;;17.20;96.00;;;;;;5097250;28;19912;-70
2021/09/22 04:26:43;;;;;;;;;;;17.00;95.80;;;;;;5099620;28;20266;-70
2021/09/22 04:29:13;;;;;;;;;;;17.00;96.30;;;;;;5099563;28;20377;-69
2021/09/22 04:31:42;;;;;;;;;;;17.10;96.20;;;;;;5097767;28;20030;-68
2021/09/22 04:34:09;;;;;;;;;;;17.20;96.90;;;;;;5099471;28;19966;-68
2021/09/22 04:36:38;;;;;;;;;;;17.20;95.90;;;;;;5099880;28;20504;-69
2021/09/22 04:39:06;;;;;;;;;;;17.30;96.10;;;;;;5096552;28;19912;-69
2021/09/22 04:41:32;;;;;;;;;;;17.20;96.60;;;;;;5095271;28;19914;-69
2021/09/22 04:43:59;;;;;;;;;;;17.10;96.50;;;;;;5095728;28;19908;-69
2021/09/22 04:46:26;;;;;;;;;;;17.00;97.20;;;;;;5095890;28;19943;-69
2021/09/22 04:48:53;;;;;;;;;;;17.00;97.30;;;;;;5094149;28;19908;-69
2021/09/22 04:51:20;;;;;;;;;;;17.20;95.70;;;;;;5095268;28;19920;-69
2021/09/22 04:53:47;;;;;;;;;;;17.00;96.90;;;;;;5095274;28;20022;-69
2021/09/22 04:56:17;;;;;;;;;;;16.90;97.30;;;;;;5095132;28;19915;-68
2021/09/22 04:58:44;;;;;;;;;;;16.90;96.80;;;;;;5095283;28;19908;-69
2021/09/22 05:01:11;;;;;;;;;;;16.90;95.80;;;;;;5095298;28;19915;-69
2021/09/22 05:03:38;;;;;;;;;;;16.90;96.40;;;;;;5095035;28;19915;-71
2021/09/22 05:06:04;;;;;;;;;;;17.00;96.20;;;;;;5094989;28;19916;-70
2021/09/22 05:08:31;;;;;;;;;;;17.10;96.70;;;;;;5095179;28;20248;-70
2021/09/22 05:10:57;;;;;;;;;;;17.10;96.20;;;;;;5094857;28;19908;-71
2021/09/22 05:13:24;;;;;;;;;;;17.00;96.30;;;;;;5094893;28;19915;-70
2021/09/22 05:15:51;;;;;;;;;;;17.00;97.00;;;;;;5094978;28;19912;-70
2021/09/22 05:18:18;;;;;;;;;;;17.00;97.10;;;;;;5094850;28;19915;-71
2021/09/22 05:20:45;;;;;;;;;;;16.90;97.30;;;;;;5093561;28;20073;-70
2021/09/22 05:23:12;;;;;;;;;;;16.80;97.10;;;;;;5094771;28;19953;-70
2021/09/22 05:25:38;;;;;;;;;;;16.80;97.10;;;;;;5094375;28;19912;-70
2021/09/22 05:28:05;;;;;;;;;;;16.90;96.70;;;;;;5094739;28;20003;-71
2021/09/22 05:30:32;;;;;;;;;;;16.70;97.20;;;;;;5094674;28;20017;-70
2021/09/22 05:32:58;;;;;;;;;;;16.70;97.90;;;;;;5094475;28;19955;-71
2021/09/22 05:35:26;;;;;;;;;;;16.70;99.40;;;;;;5094665;28;19912;-70
2021/09/22 05:37:53;;;;;;;;;;;16.70;99.40;;;;;;5092995;28;19908;-70
2021/09/22 05:40:24;;;;;;;;;;;16.80;99.70;;;;;;5094541;28;20232;-70
2021/09/22 05:42:52;;;;;;;;;;;16.80;99.70;;;;;;5094274;28;19908;-71
2021/09/22 05:45:18;;;;;;;;;;;16.60;99.90;;;;;;5092973;28;19920;-71
2021/09/22 05:47:45;;;;;;;;;;;16.80;99.80;;;;;;5094056;28;19908;-70
2021/09/22 05:50:12;;;;;;;;;;;16.60;99.80;;;;;;5094223;28;19916;-70
2021/09/22 05:52:39;;;;;;;;;;;16.60;99.90;;;;;;5094357;28;19908;-68
2021/09/22 05:55:06;;;;;;;;;;;16.60;99.90;;;;;;5094164;28;19912;-68
2021/09/22 05:57:32;;;;;;;;;;;16.50;99.90;;;;;;5093630;28;19912;-68
2021/09/22 05:59:59;;;;;;;;;;;16.40;99.90;;;;;;5092692;28;19908;-69
2021/09/22 06:02:26;;;;;;;;;;;16.40;99.90;;;;;;5093942;28;20373;-68
2021/09/22 06:04:52;;;;;;;;;;;16.30;99.90;;;;;;5093877;28;19908;-69
2021/09/22 06:07:19;;;;;;;;;;;16.40;99.90;;;;;;5093870;28;19912;-68
2021/09/22 06:09:46;;;;;;;;;;;16.40;99.90;;;;;;5093564;28;20289;-68
2021/09/22 06:12:12;;;;;;;;;;;16.40;99.90;;;;;;5094043;28;20365;-68
2021/09/22 06:14:39;;;;;;;;;;;16.40;99.90;;;;;;5094474;28;19908;-68
2021/09/22 06:17:06;;;;;;;;;;;16.30;99.90;;;;;;5093640;28;19940;-69
2021/09/22 06:19:32;;;;;;;;;;;16.30;99.90;;;;;;5093490;28;19962;-69
2021/09/22 06:21:59;;;;;;;;;;;16.30;99.90;;;;;;5093628;28;19961;-69
2021/09/22 06:24:26;;;;;;;;;;;16.30;99.90;;;;;;5091621;28;19916;-69
2021/09/22 06:26:53;;;;;;;;;;;16.20;99.90;;;;;;5093272;28;20010;-69
2021/09/22 06:29:19;;;;;;;;;;;16.10;99.90;;;;;;5093421;28;19908;-70
2021/09/22 06:31:46;;;;;;;;;;;16.10;99.90;;;;;;5093398;28;19908;-69
2021/09/22 06:34:13;;;;;;;;;;;16.10;99.90;;;;;;5093504;28;19912;-69
2021/09/22 06:36:39;;;;;;;;;;;16.00;99.90;;;;;;5093308;28;20057;-70
2021/09/22 06:39:06;;;;;;;;;;;16.00;99.90;;;;;;5093161;28;20378;-69
2021/09/22 06:41:33;;;;;;;;;;;16.00;99.90;;;;;;5093123;28;19908;-70
2021/09/22 06:44:01;;;;;;;;;;;15.90;99.90;;;;;;5093154;28;19908;-70
2021/09/22 06:46:28;;;;;;;;;;;15.90;99.90;;;;;;5093140;28;19916;-69
2021/09/22 06:48:54;;;;;;;;;;;15.90;99.90;;;;;;5093342;28;20368;-70
2021/09/22 06:51:22;;;;;;;;;;;15.90;99.90;;;;;;5090533;28;19947;-70
2021/09/22 06:53:49;;;;;;;;;;;15.80;99.90;;;;;;5090419;28;19908;-70
2021/09/22 06:56:15;;;;;;;;;;;15.80;99.90;;;;;;5090095;28;20279;-68
2021/09/22 06:58:42;;;;;;;;;;;15.70;99.90;;;;;;5090062;28;19908;-68
2021/09/22 07:01:09;;;;;;;;;;;15.70;99.90;;;;;;5090126;28;19916;-69
2021/09/22 07:03:35;;;;;;;;;;;15.70;99.90;;;;;;5089847;28;19924;-69
2021/09/22 07:06:02;;;;;;;;;;;15.70;99.90;;;;;;5089467;28;19916;-70
2021/09/22 07:08:29;;;;;;;;;;;15.60;99.90;;;;;;5090038;28;20377;-69
2021/09/22 07:10:55;;;;;;;;;;;15.60;99.90;;;;;;5089467;28;19912;-70
2021/09/22 07:13:23;;;;;;;;;;;15.50;99.90;;;;;;5090193;28;19908;-70
2021/09/22 07:15:49;;;;;;;;;;;15.50;99.90;;;;;;5089588;28;19908;-69
2021/09/22 07:18:18;;;;;;;;;;;15.50;99.90;;;;;;5089596;28;20015;-68
2021/09/22 07:20:47;;;;;;;;;;;15.50;99.90;;;;;;5090354;28;20378;-68
2021/09/22 07:23:15;;;;;;;;;;;15.40;99.90;;;;;;5089928;28;19935;-69
2021/09/22 07:25:42;;;;;;;;;;;15.40;99.90;;;;;;5089906;28;20003;-69
2021/09/22 07:28:08;;;;;;;;;;;15.30;99.90;;;;;;5090051;28;19961;-70
2021/09/22 07:30:35;;;;;;;;;;;15.30;99.90;;;;;;5089830;28;19908;-68
2021/09/22 07:33:03;;;;;;;;;;;15.30;99.90;;;;;;5089852;28;19909;-68
2021/09/22 07:35:30;;;;;;;;;;;15.30;99.90;;;;;;5088707;28;19947;-68
2021/09/22 07:37:56;;;;;;;;;;;15.30;99.90;;;;;;5090145;28;19934;-68
2021/09/22 07:40:23;;;;;;;;;;;15.20;99.90;;;;;;5090031;28;20290;-69
2021/09/22 07:42:49;;;;;;;;;;;15.20;99.90;;;;;;5090292;28;19908;-70
2021/09/22 07:45:17;;;;;;;;;;;15.20;99.90;;;;;;5088934;28;19923;-70
2021/09/22 07:47:43;;;;;;;;;;;15.20;99.90;;;;;;5089127;28;20381;-69
2021/09/22 07:50:10;;;;;;;;;;;15.10;99.90;;;;;;4949662;28;3965265;-69
2021/09/22 07:52:38;;;;;;;;;;;15.10;99.90;;;;;;5090320;28;19912;-67
2021/09/22 07:55:05;;;;;;;;;;;15.10;99.90;;;;;;5075660;28;19912;-67
2021/09/22 07:57:33;;;;;;;;;;;15.10;99.90;;;;;;5070599;28;19908;-69
2021/09/22 08:00:00;;;;;;;;;;;15.10;99.90;;;;;;5069908;28;20386;-69
2021/09/22 08:02:26;;;;;;;;;;;15.10;99.90;;;;;;5069799;28;20282;-69
2021/09/22 08:04:53;;;;;;;;;;;15.00;99.90;;;;;;5069375;28;19909;-69
2021/09/22 08:07:20;;;;;;;;;;;15.00;99.90;;;;;;5069303;28;19917;-68
2021/09/22 08:09:46;;;;;;;;;;;15.00;99.90;;;;;;5069390;28;19909;-69
2021/09/22 08:12:13;;;;;;;;;;;15.00;99.90;;;;;;5070368;28;20363;-69
2021/09/22 08:14:39;;;;;;;;;;;14.90;99.90;;;;;;5069832;28;19913;-69
2021/09/22 08:17:06;;;;;;;;;;;14.90;99.90;;;;;;5069718;28;20314;-68
2021/09/22 08:19:33;;;;;;;;;;;15.00;99.90;;;;;;5068760;28;19909;-69
2021/09/22 08:22:03;;;;;;;;;;;14.90;99.90;;;;;;5069827;28;19909;-69
2021/09/22 08:24:30;;;;;;;;;;;14.90;99.90;;;;;;5101128;28;20255;-69
2021/09/22 08:26:57;;;;;;;;;;;14.90;99.90;;;;;;5069369;28;20298;-68
2021/09/22 08:29:24;;;;;;;;;;;14.90;99.90;;;;;;5069505;28;19908;-68
2021/09/22 08:31:50;;;;;;;;;;;14.90;99.90;;;;;;5069345;28;19912;-69
2021/09/22 08:34:19;;;;;;;;;;;14.90;99.90;;;;;;5069210;28;19955;-67
2021/09/22 08:36:46;;;;;;;;;;;14.80;99.90;;;;;;5069802;28;19930;-69
2021/09/22 08:39:13;;;;;;;;;;;14.70;99.90;;;;;;5069688;28;19959;-69
2021/09/22 08:41:40;;;;;;;;;;;14.70;99.90;;;;;;5069304;28;19942;-68
2021/09/22 08:44:08;;;;;;;;;;;14.70;99.90;;;;;;5069735;28;19912;-67
2021/09/22 08:46:36;;;;;;;;;;;14.60;99.90;;;;;;5070306;28;19920;-68
2021/09/22 08:49:03;;;;;;;;;;;14.60;99.90;;;;;;5072599;28;20275;-67
2021/09/22 08:51:30;;;;;;;;;;;14.60;99.90;;;;;;5072443;28;20432;-67
2021/09/22 08:53:58;;;;;;;;;;;14.50;99.90;;;;;;5073030;28;20049;-68
2021/09/22 08:56:25;;;;;;;;;;;14.50;99.90;;;;;;5072562;28;19912;-67
2021/09/22 08:58:52;;;;;;;;;;;14.50;99.90;;;;;;5072256;28;19916;-68
2021/09/22 09:01:20;;;;;;;;;;;14.40;99.90;;;;;;5072763;28;19912;-68
2021/09/22 09:03:48;;;;;;;;;;;14.40;99.90;;;;;;5072432;28;20381;-68
2021/09/22 09:06:19;;;;;;;;;;;14.40;99.90;;;;;;5073505;28;19913;-67
2021/09/22 09:08:47;;;;;;;;;;;14.40;99.90;;;;;;5075037;28;19938;-67
2021/09/22 09:11:14;;;;;;;;;;;14.40;99.90;;;;;;5074770;28;20372;-69
2021/09/22 09:13:50;;;;;;;;;;;14.30;99.90;;;;;;5074498;28;19916;-68
2021/09/22 09:16:22;;;;;;;;;;;14.30;99.90;;;;;;5074583;28;19920;-70
2021/09/22 09:18:51;;;;;;;;;;;14.30;99.90;;;;;;5074414;28;19916;-67
2021/09/22 09:21:17;;;;;;;;;;;14.20;99.90;;;;;;5074764;28;19908;-69
2021/09/22 09:23:49;;;;;;;;;;;14.20;99.90;;;;;;5074253;28;19909;-67
2021/09/22 09:26:17;;;;;;;;;;;14.20;99.90;;;;;;5074268;28;19928;-67
2021/09/22 09:28:51;;;;;;;;;;;14.30;99.90;;;;;;5074440;28;19908;-68
2021/09/22 09:31:18;;;;;;;;;;;14.40;99.90;;;;;;5074479;28;19908;-69
2021/09/22 09:33:44;;;;;;;;;;;14.30;99.90;;;;;;5073639;28;20015;-67
2021/09/22 09:36:17;;;;;;;;;;;14.30;99.90;;;;;;5074259;28;19912;-68
2021/09/22 09:38:52;;;;;;;;;;;14.30;99.90;;;;;;5074122;28;19920;-68
2021/09/22 09:41:30;;;;;;;;;;;14.20;99.90;;;;;;5074026;28;19909;-69
2021/09/22 09:43:57;;;;;;;;;;;14.20;99.90;;;;;;5074133;28;19999;-67
2021/09/22 09:46:25;;;;;;;;;;;14.10;99.90;;;;;;5073638;28;19923;-69
2021/09/22 09:49:10;;;;;;;;;;;14.10;99.90;;;;;;5073508;28;19912;-68
2021/09/22 09:51:41;;;;;;;;;;;14.10;99.90;;;;;;5073360;28;20244;-68
2021/09/22 09:54:15;;;;;;;;;;;14.00;99.90;;;;;;5073857;28;19956;-68
2021/09/22 09:56:42;;;;;;;;;;;14.00;99.90;;;;;;5073802;28;20347;-68
2021/09/22 09:59:09;;;;;;;;;;;14.00;99.90;;;;;;5072787;28;20270;-69
2021/09/22 10:01:37;;;;;;;;;;;14.00;99.90;;;;;;5073501;28;19913;-68
2021/09/22 10:04:08;;;;;;;;;;;14.00;99.90;;;;;;5073679;28;19908;-69
2021/09/22 10:06:35;;;;;;;;;;;14.10;99.90;;;;;;5073521;28;19923;-69
2021/09/22 10:09:03;;;;;;;;;;;14.00;99.90;;;;;;5073392;28;19908;-67
2021/09/22 10:11:31;;;;;;;;;;;14.10;99.90;;;;;;5073472;28;20347;-69
2021/09/22 10:13:58;;;;;;;;;;;14.10;99.90;;;;;;5073442;28;20321;-71
2021/09/22 10:16:25;;;;;;;;;;;14.00;99.90;;;;;;5073804;28;20367;-71
2021/09/22 10:18:52;;;;;;;;;;;14.00;99.90;;;;;;5074259;28;19909;-70
2021/09/22 10:21:19;;;;;;;;;;;14.00;99.90;;;;;;5073378;28;19916;-70
2021/09/22 10:23:46;;;;;;;;;;;14.00;99.90;;;;;;5073186;28;19913;-70
2021/09/22 10:26:13;;;;;;;;;;;14.00;99.90;;;;;;5073242;28;20011;-71
2021/09/22 10:28:44;;;;;;;;;;;14.00;99.90;;;;;;5073212;28;19915;-71
2021/09/22 10:31:37;;;;;;;;;;;14.00;99.90;;;;;;5073550;28;20406;-67
2021/09/22 10:34:04;;;;;;;;;;;13.90;99.90;;;;;;5072099;28;19909;-70
2021/09/22 10:36:44;;;;;;;;;;;14.00;99.90;;;;;;5073243;28;19909;-71
2021/09/22 10:39:11;;;;;;;;;;;13.90;99.90;;;;;;5072847;28;20020;-70
2021/09/22 10:41:40;;;;;;;;;;;13.90;99.90;;;;;;5072899;28;19908;-71
2021/09/22 10:44:10;;;;;;;;;;;13.90;99.90;;;;;;5072969;28;19908;-70
2021/09/22 10:46:36;;;;;;;;;;;13.90;99.90;;;;;;5072617;28;19924;-71
2021/09/22 10:49:09;;;;;;;;;;;13.90;99.90;;;;;;5072975;28;19939;-71
2021/09/22 10:51:35;;;;;;;;;;;13.90;99.90;;;;;;5072649;28;19924;-70
2021/09/22 10:54:27;;;;;;;;;;;13.90;99.90;;;;;;5072767;28;19909;-71
2021/09/22 10:56:53;;;;;;;;;;;13.90;99.90;;;;;;5073047;28;20327;-71
2021/09/22 10:59:38;;;;;;;;;;;13.90;99.90;;;;;;5072844;28;19915;-70
2021/09/22 11:02:05;;;;;;;;;;;13.90;99.90;;;;;;5072829;28;19908;-70
2021/09/22 11:04:50;;;;;;;;;;;14.00;99.90;;;;;;5072819;28;20413;-70
2021/09/22 11:07:17;;;;;;;;;;;14.00;99.90;;;;;;5072671;28;20002;-68
2021/09/22 11:09:45;;;;;;;;;;;14.00;99.90;;;;;;5071961;28;20003;-68
2021/09/22 11:12:13;;;;;;;;;;;14.00;99.90;;;;;;5072688;28;19912;-69
2021/09/22 11:14:49;;;;;;;;;;;14.00;99.90;;;;;;5072525;28;19936;-69
2021/09/22 11:17:17;;;;;;;;;;;14.00;99.90;;;;;;5072689;28;19995;-69
2021/09/22 11:19:49;;;;;;;;;;;14.00;99.90;;;;;;5072551;28;19909;-69
2021/09/22 11:22:17;;;;;;;;;;;14.00;99.90;;;;;;5072560;28;19913;-68
2021/09/22 11:24:44;;;;;;;;;;;14.00;99.90;;;;;;5072301;28;20264;-70
2021/09/22 11:27:12;;;;;;;;;;;14.10;99.90;;;;;;5072508;28;20279;-69
2021/09/22 11:29:41;;;;;;;;;;;14.10;99.90;;;;;;5072414;28;19912;-69
2021/09/22 11:32:26;;;;;;;;;;;14.00;99.90;;;;;;5072659;28;19913;-70
2021/09/22 11:34:54;;;;;;;;;;;13.90;99.90;;;;;;5072436;28;20003;-69
2021/09/22 11:37:21;;;;;;;;;;;14.00;99.90;;;;;;5072695;28;19909;-70
2021/09/22 11:39:48;;;;;;;;;;;13.90;99.90;;;;;;5072013;28;20367;-69
2021/09/22 11:42:16;;;;;;;;;;;13.90;99.90;;;;;;5072524;28;19915;-69
2021/09/22 11:44:42;;;;;;;;;;;13.80;99.90;;;;;;5072592;28;19909;-70
2021/09/22 11:47:10;;;;;;;;;;;13.90;99.90;;;;;;5075903;28;19939;-71
2021/09/22 11:49:38;;;;;;;;;;;13.80;99.90;;;;;;5072522;28;19912;-71
2021/09/22 11:52:13;;;;;;;;;;;13.80;99.90;;;;;;5072289;28;19914;-71
2021/09/22 11:54:44;;;;;;;;;;;13.90;99.90;;;;;;5072144;28;19915;-71
2021/09/22 11:57:12;;;;;;;;;;;13.90;99.90;;;;;;5072282;28;19908;-71
2021/09/22 11:59:39;;;;;;;;;;;13.80;99.90;;;;;;5071758;28;19909;-71
2021/09/22 12:02:05;;;;;;;;;;;13.80;99.90;;;;;;5071637;28;20063;-71
2021/09/22 12:04:37;;;;;;;;;;;13.80;99.90;;;;;;5071970;28;19939;-70
2021/09/22 12:07:07;;;;;;;;;;;13.80;99.90;;;;;;5071708;28;19960;-71
2021/09/22 12:09:39;;;;;;;;;;;13.80;99.90;;;;;;5071649;28;20003;-71
2021/09/22 12:12:07;;;;;;;;;;;13.90;99.90;;;;;;5071695;28;19935;-71
2021/09/22 12:14:33;;;;;;;;;;;13.90;99.90;;;;;;5071869;28;20305;-70
2021/09/22 12:17:07;;;;;;;;;;;14.00;99.90;;;;;;5071197;28;19954;-71
2021/09/22 12:19:34;;;;;;;;;;;14.00;99.90;;;;;;5070310;28;19909;-70
2021/09/22 12:22:01;;;;;;;;;;;14.00;99.90;;;;;;5073587;28;19914;-70
2021/09/22 12:24:29;;;;;;;;;;;14.00;99.90;;;;;;5075514;28;20366;-70
2021/09/22 12:26:55;;;;;;;;;;;14.00;99.90;;;;;;5075394;28;19927;-70
2021/09/22 12:29:22;;;;;;;;;;;13.90;99.90;;;;;;5075443;28;19916;-69
2021/09/22 12:31:52;;;;;;;;;;;13.90;99.90;;;;;;5074844;28;19908;-68
2021/09/22 12:34:27;;;;;;;;;;;13.90;99.90;;;;;;5075444;28;19909;-68
2021/09/22 12:36:54;;;;;;;;;;;13.90;99.90;;;;;;5075208;28;19916;-68
2021/09/22 12:39:26;;;;;;;;;;;13.90;99.90;;;;;;5075032;28;19908;-68
2021/09/22 12:42:02;;;;;;;;;;;13.80;99.90;;;;;;5074885;28;19908;-70
2021/09/22 12:44:30;;;;;;;;;;;13.70;99.90;;;;;;5074884;28;19916;-68
2021/09/22 12:46:56;;;;;;;;;;;13.70;99.90;;;;;;5075308;28;19917;-69
2021/09/22 12:49:24;;;;;;;;;;;13.70;99.90;;;;;;5075218;28;19908;-68
2021/09/22 12:51:52;;;;;;;;;;;13.60;99.90;;;;;;5075025;28;20005;-68
2021/09/22 12:54:19;;;;;;;;;;;13.70;99.90;;;;;;5076345;28;19975;-71
2021/09/22 12:56:46;;;;;;;;;;;13.70;99.90;;;;;;5076493;28;20598;-70
2021/09/22 12:59:19;;;;;;;;;;;13.60;99.90;;;;;;5074933;28;19915;-70
2021/09/22 13:01:50;;;;;;;;;;;13.60;99.90;;;;;;5074770;28;20428;-69
2021/09/22 13:04:26;;;;;;;;;;;13.50;99.90;;;;;;5074841;28;19908;-69
2021/09/22 13:06:57;;;;;;;;;;;13.40;99.90;;;;;;5074973;28;20395;-70
2021/09/22 13:09:37;;;;;;;;;;;13.40;99.90;;;;;;5074818;28;19982;-70
2021/09/22 13:12:04;;;;;;;;;;;13.30;99.90;;;;;;5074734;28;20446;-71
2021/09/22 13:14:38;;;;;;;;;;;13.30;99.90;;;;;;5074932;28;19960;-69
2021/09/22 13:17:05;;;;;;;;;;;13.40;99.90;;;;;;5074840;28;19948;-70
2021/09/22 13:19:32;;;;;;;;;;;13.40;99.90;;;;;;5074382;28;19909;-69
2021/09/22 13:22:00;;;;;;;;;;;13.40;99.90;;;;;;5074770;28;19950;-70
2021/09/22 13:24:27;;;;;;;;;;;13.30;99.90;;;;;;5074659;28;19908;-70
2021/09/22 13:26:56;;;;;;;;;;;13.30;99.90;;;;;;5074565;28;20351;-71
2021/09/22 13:29:23;;;;;;;;;;;13.30;99.90;;;;;;5074316;28;20286;-70
2021/09/22 13:31:54;;;;;;;;;;;13.30;99.90;;;;;;5074084;28;19912;-70
2021/09/22 13:34:27;;;;;;;;;;;13.30;99.90;;;;;;5074555;28;20367;-70
2021/09/22 13:36:55;;;;;;;;;;;13.30;99.90;;;;;;5074508;28;19954;-70
2021/09/22 13:39:22;;;;;;;;;;;13.20;99.90;;;;;;5074232;28;19908;-71
2021/09/22 13:41:49;;;;;;;;;;;13.20;99.90;;;;;;5073956;28;19994;-70
2021/09/22 13:44:15;;;;;;;;;;;13.20;99.90;;;;;;5074276;28;20299;-70
2021/09/22 13:46:52;;;;;;;;;;;13.20;99.90;;;;;;5074069;28;19916;-70
2021/09/22 13:49:19;;;;;;;;;;;13.10;99.90;;;;;;5074137;28;19912;-70
2021/09/22 13:51:46;;;;;;;;;;;13.10;99.90;;;;;;5074046;28;19927;-70
2021/09/22 13:54:15;;;;;;;;;;;13.10;99.90;;;;;;5074359;28;19912;-70
2021/09/22 13:56:42;;;;;;;;;;;13.00;99.90;;;;;;5072603;28;19999;-70
2021/09/22 13:59:11;;;;;;;;;;;13.00;99.90;;;;;;5073962;28;19908;-70
2021/09/22 14:01:38;;;;;;;;;;;13.00;99.90;;;;;;5073595;28;20383;-70
2021/09/22 14:04:05;;;;;;;;;;;12.90;99.90;;;;;;5074155;28;19909;-70
2021/09/22 14:06:31;;;;;;;;;;;12.90;99.90;;;;;;5073769;28;20381;-70
2021/09/22 14:08:58;;;;;;;;;;;12.90;99.90;;;;;;5073657;28;19908;-70
2021/09/22 14:11:24;;;;;;;;;;;12.90;99.90;;;;;;5073695;28;19909;-70
2021/09/22 14:13:51;;;;;;;;;;;13.00;99.90;;;;;;5073385;28;19909;-70
2021/09/22 14:16:18;;;;;;;;;;;13.10;99.90;;;;;;5073557;28;19908;-70
2021/09/22 14:18:44;;;;;;;;;;;13.10;99.90;;;;;;5073475;28;19915;-70
2021/09/22 14:21:11;;;;;;;;;;;13.10;99.90;;;;;;5073494;28;19915;-69